Terminal Aerodrome Forecast
Issued by NWS

Home | Current Version | Previous Version | Text Only | Print | Product List | Glossary On
Versions: 1 2 3 4 5 6 7 8 9 10 11 12 13 14
626
FTUS45 KRIW 251953 AAA
TAFBPI
TAF AMD
KBPI 251953Z 2520/2618 VRB05KT P6SM VCSH BKN030
     FM252200 30012G18KT P6SM BKN045
     FM260200 33009KT P6SM FEW060
     FM261000 30004KT P6SM VCFG SCT005
     FM261500 30006KT P6SM FEW005=

USA.gov is the U.S. government's official web portal to all federal, state and local government web resources and services.